sensor_id;sensor_type;location;lat;lon;timestamp;temperature;humidity
52799;DHT22;38667;42.872;74.622;2022-10-31T00:02:15;8.40;80.20
52799;DHT22;38667;42.872;74.622;2022-10-31T00:04:41;8.30;81.10
52799;DHT22;38667;42.872;74.622;2022-10-31T00:07:08;8.30;81.80
52799;DHT22;38667;42.872;74.622;2022-10-31T00:09:34;8.30;82.40
52799;DHT22;38667;42.872;74.622;2022-10-31T00:12:02;8.40;82.10
52799;DHT22;38667;42.872;74.622;2022-10-31T00:14:28;8.50;83.00
52799;DHT22;38667;42.872;74.622;2022-10-31T00:16:54;8.50;83.40
52799;DHT22;38667;42.872;74.622;2022-10-31T00:19:21;8.50;83.60
52799;DHT22;38667;42.872;74.622;2022-10-31T00:21:47;8.50;85.10
52799;DHT22;38667;42.872;74.622;2022-10-31T00:24:13;8.50;84.80
52799;DHT22;38667;42.872;74.622;2022-10-31T00:26:40;8.50;82.90
52799;DHT22;38667;42.872;74.622;2022-10-31T00:29:07;8.40;82.00
52799;DHT22;38667;42.872;74.622;2022-10-31T00:31:34;8.40;82.30
52799;DHT22;38667;42.872;74.622;2022-10-31T00:34:00;8.40;83.30
52799;DHT22;38667;42.872;74.622;2022-10-31T00:36:26;8.50;86.10
52799;DHT22;38667;42.872;74.622;2022-10-31T00:38:53;8.60;85.30
52799;DHT22;38667;42.872;74.622;2022-10-31T00:41:19;8.50;85.00
52799;DHT22;38667;42.872;74.622;2022-10-31T00:43:45;8.50;82.90
52799;DHT22;38667;42.872;74.622;2022-10-31T00:46:13;8.50;82.80
52799;DHT22;38667;42.872;74.622;2022-10-31T00:48:40;8.60;82.10
52799;DHT22;38667;42.872;74.622;2022-10-31T00:51:06;8.70;81.60
52799;DHT22;38667;42.872;74.622;2022-10-31T00:53:33;8.70;82.20
52799;DHT22;38667;42.872;74.622;2022-10-31T00:55:59;8.70;83.40
52799;DHT22;38667;42.872;74.622;2022-10-31T00:58:26;8.70;84.80
52799;DHT22;38667;42.872;74.622;2022-10-31T01:00:52;8.70;84.30
52799;DHT22;38667;42.872;74.622;2022-10-31T01:03:20;8.70;82.20
52799;DHT22;38667;42.872;74.622;2022-10-31T01:05:58;8.60;79.20
52799;DHT22;38667;42.872;74.622;2022-10-31T01:08:25;8.70;80.50
52799;DHT22;38667;42.872;74.622;2022-10-31T01:11:00;8.70;80.40
52799;DHT22;38667;42.872;74.622;2022-10-31T01:13:26;8.80;84.10
52799;DHT22;38667;42.872;74.622;2022-10-31T01:15:54;8.80;83.80
52799;DHT22;38667;42.872;74.622;2022-10-31T01:18:22;8.80;78.00
52799;DHT22;38667;42.872;74.622;2022-10-31T01:20:57;8.80;77.90
52799;DHT22;38667;42.872;74.622;2022-10-31T01:23:23;8.90;78.30
52799;DHT22;38667;42.872;74.622;2022-10-31T01:25:49;8.90;78.00
52799;DHT22;38667;42.872;74.622;2022-10-31T01:28:24;8.90;75.40
52799;DHT22;38667;42.872;74.622;2022-10-31T01:30:50;9.00;75.80
52799;DHT22;38667;42.872;74.622;2022-10-31T01:33:16;9.10;76.50
52799;DHT22;38667;42.872;74.622;2022-10-31T01:35:44;9.00;76.20
52799;DHT22;38667;42.872;74.622;2022-10-31T01:38:10;9.00;76.40
52799;DHT22;38667;42.872;74.622;2022-10-31T01:40:37;9.00;76.30
52799;DHT22;38667;42.872;74.622;2022-10-31T01:43:03;9.00;76.70
52799;DHT22;38667;42.872;74.622;2022-10-31T01:45:29;9.00;76.60
52799;DHT22;38667;42.872;74.622;2022-10-31T01:47:56;9.00;80.50
52799;DHT22;38667;42.872;74.622;2022-10-31T01:50:28;9.00;76.20
52799;DHT22;38667;42.872;74.622;2022-10-31T01:52:58;9.00;76.20
52799;DHT22;38667;42.872;74.622;2022-10-31T01:55:28;9.10;78.20
52799;DHT22;38667;42.872;74.622;2022-10-31T01:57:58;9.10;74.10
52799;DHT22;38667;42.872;74.622;2022-10-31T02:03:06;9.20;72.20
52799;DHT22;38667;42.872;74.622;2022-10-31T02:07:44;9.20;71.20
52799;DHT22;38667;42.872;74.622;2022-10-31T02:10:11;9.20;71.20
52799;DHT22;38667;42.872;74.622;2022-10-31T02:12:38;9.20;70.50
52799;DHT22;38667;42.872;74.622;2022-10-31T02:15:06;9.30;70.70
52799;DHT22;38667;42.872;74.622;2022-10-31T02:17:33;9.20;70.80
52799;DHT22;38667;42.872;74.622;2022-10-31T02:20:05;9.20;70.80
52799;DHT22;38667;42.872;74.622;2022-10-31T02:22:43;9.20;69.80
52799;DHT22;38667;42.872;74.622;2022-10-31T02:25:29;9.20;71.00
52799;DHT22;38667;42.872;74.622;2022-10-31T02:28:25;9.20;70.50
52799;DHT22;38667;42.872;74.622;2022-10-31T02:31:17;9.20;70.40
52799;DHT22;38667;42.872;74.622;2022-10-31T02:33:48;9.30;71.30
52799;DHT22;38667;42.872;74.622;2022-10-31T02:36:20;9.30;69.60
52799;DHT22;38667;42.872;74.622;2022-10-31T02:38:52;9.30;69.50
52799;DHT22;38667;42.872;74.622;2022-10-31T02:41:28;9.30;70.10
52799;DHT22;38667;42.872;74.622;2022-10-31T02:44:14;9.30;68.90
52799;DHT22;38667;42.872;74.622;2022-10-31T02:46:48;9.40;68.70
52799;DHT22;38667;42.872;74.622;2022-10-31T02:49:22;9.40;67.80
52799;DHT22;38667;42.872;74.622;2022-10-31T02:51:49;9.40;69.30
52799;DHT22;38667;42.872;74.622;2022-10-31T02:54:18;9.50;70.30
52799;DHT22;38667;42.872;74.622;2022-10-31T02:56:45;9.60;69.20
52799;DHT22;38667;42.872;74.622;2022-10-31T02:59:13;9.50;70.40
52799;DHT22;38667;42.872;74.622;2022-10-31T03:02:09;9.50;71.00
52799;DHT22;38667;42.872;74.622;2022-10-31T03:05:02;9.50;71.70
52799;DHT22;38667;42.872;74.622;2022-10-31T03:07:38;9.60;72.80
52799;DHT22;38667;42.872;74.622;2022-10-31T03:10:15;9.50;72.80
52799;DHT22;38667;42.872;74.622;2022-10-31T03:12:49;9.60;69.90
52799;DHT22;38667;42.872;74.622;2022-10-31T03:15:21;9.50;72.20
52799;DHT22;38667;42.872;74.622;2022-10-31T03:17:55;9.30;70.90
52799;DHT22;38667;42.872;74.622;2022-10-31T03:20:28;9.30;70.90
52799;DHT22;38667;42.872;74.622;2022-10-31T03:22:57;9.20;70.50
52799;DHT22;38667;42.872;74.622;2022-10-31T03:25:25;9.20;71.80
52799;DHT22;38667;42.872;74.622;2022-10-31T03:27:52;9.20;73.50
52799;DHT22;38667;42.872;74.622;2022-10-31T03:30:19;9.10;74.30
52799;DHT22;38667;42.872;74.622;2022-10-31T03:32:47;9.10;74.80
52799;DHT22;38667;42.872;74.622;2022-10-31T03:35:17;9.00;75.20
52799;DHT22;38667;42.872;74.622;2022-10-31T03:37:46;9.00;74.80
52799;DHT22;38667;42.872;74.622;2022-10-31T03:40:14;9.00;74.60
52799;DHT22;38667;42.872;74.622;2022-10-31T03:42:43;9.00;75.00
52799;DHT22;38667;42.872;74.622;2022-10-31T03:45:14;9.20;72.20
52799;DHT22;38667;42.872;74.622;2022-10-31T03:47:43;9.30;73.70
52799;DHT22;38667;42.872;74.622;2022-10-31T03:50:10;9.30;74.40
52799;DHT22;38667;42.872;74.622;2022-10-31T03:52:42;9.20;76.20
52799;DHT22;38667;42.872;74.622;2022-10-31T03:55:16;9.20;78.10
52799;DHT22;38667;42.872;74.622;2022-10-31T03:57:45;9.20;77.00
52799;DHT22;38667;42.872;74.622;2022-10-31T04:00:13;9.30;75.80
52799;DHT22;38667;42.872;74.622;2022-10-31T04:02:42;9.30;75.80
52799;DHT22;38667;42.872;74.622;2022-10-31T04:05:11;9.30;73.90
52799;DHT22;38667;42.872;74.622;2022-10-31T04:07:43;9.40;73.50
52799;DHT22;38667;42.872;74.622;2022-10-31T04:10:13;9.50;72.70
52799;DHT22;38667;42.872;74.622;2022-10-31T04:12:42;9.60;73.40
52799;DHT22;38667;42.872;74.622;2022-10-31T04:15:10;9.80;73.70
52799;DHT22;38667;42.872;74.622;2022-10-31T04:17:39;9.80;70.50
52799;DHT22;38667;42.872;74.622;2022-10-31T04:20:07;10.00;65.40
52799;DHT22;38667;42.872;74.622;2022-10-31T04:22:33;10.10;64.20
52799;DHT22;38667;42.872;74.622;2022-10-31T04:25:01;10.30;62.80
52799;DHT22;38667;42.872;74.622;2022-10-31T04:27:27;10.40;66.00
52799;DHT22;38667;42.872;74.622;2022-10-31T04:29:54;10.50;67.40
52799;DHT22;38667;42.872;74.622;2022-10-31T04:32:20;10.50;68.50
52799;DHT22;38667;42.872;74.622;2022-10-31T04:34:47;10.60;67.10
52799;DHT22;38667;42.872;74.622;2022-10-31T04:37:13;10.60;64.20
52799;DHT22;38667;42.872;74.622;2022-10-31T04:39:39;10.80;62.00
52799;DHT22;38667;42.872;74.622;2022-10-31T04:42:07;10.80;59.90
52799;DHT22;38667;42.872;74.622;2022-10-31T04:44:33;10.80;60.00
52799;DHT22;38667;42.872;74.622;2022-10-31T04:46:59;10.80;58.60
52799;DHT22;38667;42.872;74.622;2022-10-31T04:49:26;10.80;59.10
52799;DHT22;38667;42.872;74.622;2022-10-31T04:51:52;10.90;59.90
52799;DHT22;38667;42.872;74.622;2022-10-31T04:54:18;11.00;62.10
52799;DHT22;38667;42.872;74.622;2022-10-31T04:56:45;11.00;58.80
52799;DHT22;38667;42.872;74.622;2022-10-31T04:59:12;11.10;59.60
52799;DHT22;38667;42.872;74.622;2022-10-31T05:01:39;11.20;60.50
52799;DHT22;38667;42.872;74.622;2022-10-31T05:04:05;11.30;61.90
52799;DHT22;38667;42.872;74.622;2022-10-31T05:06:31;11.40;60.40
52799;DHT22;38667;42.872;74.622;2022-10-31T05:08:57;11.50;61.30
52799;DHT22;38667;42.872;74.622;2022-10-31T05:11:24;11.70;62.80
52799;DHT22;38667;42.872;74.622;2022-10-31T05:13:50;11.70;59.90
52799;DHT22;38667;42.872;74.622;2022-10-31T05:16:18;11.70;60.60
52799;DHT22;38667;42.872;74.622;2022-10-31T05:18:45;11.80;60.30
52799;DHT22;38667;42.872;74.622;2022-10-31T05:21:11;11.70;58.60
52799;DHT22;38667;42.872;74.622;2022-10-31T05:23:37;11.90;59.50
52799;DHT22;38667;42.872;74.622;2022-10-31T05:26:04;12.10;57.10
52799;DHT22;38667;42.872;74.622;2022-10-31T05:28:30;12.30;58.10
52799;DHT22;38667;42.872;74.622;2022-10-31T05:30:56;12.40;57.70
52799;DHT22;38667;42.872;74.622;2022-10-31T05:33:24;12.60;56.80
52799;DHT22;38667;42.872;74.622;2022-10-31T05:35:50;12.70;57.20
52799;DHT22;38667;42.872;74.622;2022-10-31T05:38:17;12.80;57.30
52799;DHT22;38667;42.872;74.622;2022-10-31T05:40:43;12.80;56.90
52799;DHT22;38667;42.872;74.622;2022-10-31T05:43:09;12.70;56.40
52799;DHT22;38667;42.872;74.622;2022-10-31T05:45:35;12.60;56.10
52799;DHT22;38667;42.872;74.622;2022-10-31T05:48:02;12.50;57.20
52799;DHT22;38667;42.872;74.622;2022-10-31T05:50:31;12.60;56.30
52799;DHT22;38667;42.872;74.622;2022-10-31T05:52:59;12.70;56.20
52799;DHT22;38667;42.872;74.622;2022-10-31T05:55:26;12.70;56.00
52799;DHT22;38667;42.872;74.622;2022-10-31T05:57:52;12.80;55.50
52799;DHT22;38667;42.872;74.622;2022-10-31T06:00:20;12.90;55.30
52799;DHT22;38667;42.872;74.622;2022-10-31T06:02:46;13.00;55.10
52799;DHT22;38667;42.872;74.622;2022-10-31T06:05:12;13.00;55.50
52799;DHT22;38667;42.872;74.622;2022-10-31T06:07:40;12.90;54.90
52799;DHT22;38667;42.872;74.622;2022-10-31T06:10:08;12.90;54.10
52799;DHT22;38667;42.872;74.622;2022-10-31T06:12:35;12.90;54.70
52799;DHT22;38667;42.872;74.622;2022-10-31T06:15:01;13.00;53.80
52799;DHT22;38667;42.872;74.622;2022-10-31T06:17:28;12.90;54.10
52799;DHT22;38667;42.872;74.622;2022-10-31T06:19:54;12.90;53.60
52799;DHT22;38667;42.872;74.622;2022-10-31T06:22:20;13.00;53.30
52799;DHT22;38667;42.872;74.622;2022-10-31T06:24:48;13.10;54.20
52799;DHT22;38667;42.872;74.622;2022-10-31T06:27:14;13.20;53.80
52799;DHT22;38667;42.872;74.622;2022-10-31T06:29:40;13.20;54.00
52799;DHT22;38667;42.872;74.622;2022-10-31T06:32:10;13.20;53.20
52799;DHT22;38667;42.872;74.622;2022-10-31T06:34:36;13.20;53.50
52799;DHT22;38667;42.872;74.622;2022-10-31T06:37:02;13.20;53.50
52799;DHT22;38667;42.872;74.622;2022-10-31T06:39:29;13.20;53.70
52799;DHT22;38667;42.872;74.622;2022-10-31T06:41:57;13.20;53.60
52799;DHT22;38667;42.872;74.622;2022-10-31T06:44:23;13.20;55.50
52799;DHT22;38667;42.872;74.622;2022-10-31T06:46:49;13.20;54.80
52799;DHT22;38667;42.872;74.622;2022-10-31T06:49:16;13.30;54.40
52799;DHT22;38667;42.872;74.622;2022-10-31T06:51:42;13.20;53.60
52799;DHT22;38667;42.872;74.622;2022-10-31T06:54:08;13.20;53.80
52799;DHT22;38667;42.872;74.622;2022-10-31T06:56:35;13.20;53.40
52799;DHT22;38667;42.872;74.622;2022-10-31T06:59:03;13.20;53.60
52799;DHT22;38667;42.872;74.622;2022-10-31T07:01:29;13.20;53.30
52799;DHT22;38667;42.872;74.622;2022-10-31T07:03:55;13.20;51.40
52799;DHT22;38667;42.872;74.622;2022-10-31T07:06:21;13.20;53.00
52799;DHT22;38667;42.872;74.622;2022-10-31T07:08:48;13.30;53.90
52799;DHT22;38667;42.872;74.622;2022-10-31T07:11:14;13.30;53.50
52799;DHT22;38667;42.872;74.622;2022-10-31T07:13:40;13.40;54.20
52799;DHT22;38667;42.872;74.622;2022-10-31T07:16:09;13.40;54.10
52799;DHT22;38667;42.872;74.622;2022-10-31T07:18:35;13.50;53.60
52799;DHT22;38667;42.872;74.622;2022-10-31T07:21:02;13.60;53.50
52799;DHT22;38667;42.872;74.622;2022-10-31T07:23:28;13.60;52.90
52799;DHT22;38667;42.872;74.622;2022-10-31T07:25:55;13.50;52.80
52799;DHT22;38667;42.872;74.622;2022-10-31T07:28:22;13.50;53.80
52799;DHT22;38667;42.872;74.622;2022-10-31T07:30:50;13.50;53.50
52799;DHT22;38667;42.872;74.622;2022-10-31T07:33:17;13.60;54.70
52799;DHT22;38667;42.872;74.622;2022-10-31T07:35:44;13.60;51.70
52799;DHT22;38667;42.872;74.622;2022-10-31T07:38:11;13.50;52.10
52799;DHT22;38667;42.872;74.622;2022-10-31T07:40:38;13.30;52.90
52799;DHT22;38667;42.872;74.622;2022-10-31T07:43:05;13.30;54.00
52799;DHT22;38667;42.872;74.622;2022-10-31T07:45:31;13.40;53.20
52799;DHT22;38667;42.872;74.622;2022-10-31T07:47:57;13.40;54.20
52799;DHT22;38667;42.872;74.622;2022-10-31T07:50:26;13.50;54.80
52799;DHT22;38667;42.872;74.622;2022-10-31T07:52:59;13.60;53.10
52799;DHT22;38667;42.872;74.622;2022-10-31T07:55:26;13.60;52.70
52799;DHT22;38667;42.872;74.622;2022-10-31T07:57:56;13.60;53.90
52799;DHT22;38667;42.872;74.622;2022-10-31T08:00:22;13.60;53.30
52799;DHT22;38667;42.872;74.622;2022-10-31T08:02:55;13.60;53.30
52799;DHT22;38667;42.872;74.622;2022-10-31T08:05:22;13.60;53.60
52799;DHT22;38667;42.872;74.622;2022-10-31T08:07:50;13.60;53.70
52799;DHT22;38667;42.872;74.622;2022-10-31T08:10:16;13.50;53.60
52799;DHT22;38667;42.872;74.622;2022-10-31T08:12:42;13.40;53.40
52799;DHT22;38667;42.872;74.622;2022-10-31T08:15:09;13.50;54.20
52799;DHT22;38667;42.872;74.622;2022-10-31T08:17:36;13.40;53.30
52799;DHT22;38667;42.872;74.622;2022-10-31T08:20:03;13.40;53.80
52799;DHT22;38667;42.872;74.622;2022-10-31T08:22:29;13.30;54.30
52799;DHT22;38667;42.872;74.622;2022-10-31T08:24:57;13.40;54.70
52799;DHT22;38667;42.872;74.622;2022-10-31T08:27:23;13.30;54.60
52799;DHT22;38667;42.872;74.622;2022-10-31T08:29:49;13.30;55.10
52799;DHT22;38667;42.872;74.622;2022-10-31T08:32:16;13.30;53.90
52799;DHT22;38667;42.872;74.622;2022-10-31T08:34:42;13.20;54.80
52799;DHT22;38667;42.872;74.622;2022-10-31T08:37:08;13.20;55.10
52799;DHT22;38667;42.872;74.622;2022-10-31T08:39:35;13.10;54.80
52799;DHT22;38667;42.872;74.622;2022-10-31T08:42:02;13.00;55.60
52799;DHT22;38667;42.872;74.622;2022-10-31T08:44:29;13.00;54.90
52799;DHT22;38667;42.872;74.622;2022-10-31T08:46:55;13.00;54.50
52799;DHT22;38667;42.872;74.622;2022-10-31T08:49:21;12.90;55.00
52799;DHT22;38667;42.872;74.622;2022-10-31T08:51:48;12.80;55.70
52799;DHT22;38667;42.872;74.622;2022-10-31T08:54:14;12.80;55.70
52799;DHT22;38667;42.872;74.622;2022-10-31T08:56:40;12.80;55.80
52799;DHT22;38667;42.872;74.622;2022-10-31T08:59:08;12.80;55.80
52799;DHT22;38667;42.872;74.622;2022-10-31T09:01:35;12.80;55.70
52799;DHT22;38667;42.872;74.622;2022-10-31T09:04:01;12.80;56.40
52799;DHT22;38667;42.872;74.622;2022-10-31T09:06:27;12.80;57.40
52799;DHT22;38667;42.872;74.622;2022-10-31T09:08:53;12.90;57.20
52799;DHT22;38667;42.872;74.622;2022-10-31T09:11:20;12.90;56.80
52799;DHT22;38667;42.872;74.622;2022-10-31T09:13:46;12.80;56.60
52799;DHT22;38667;42.872;74.622;2022-10-31T09:16:14;12.70;56.80
52799;DHT22;38667;42.872;74.622;2022-10-31T09:18:40;12.70;57.50
52799;DHT22;38667;42.872;74.622;2022-10-31T09:21:08;12.60;57.50
52799;DHT22;38667;42.872;74.622;2022-10-31T09:23:34;12.60;58.70
52799;DHT22;38667;42.872;74.622;2022-10-31T09:26:01;12.50;59.40
52799;DHT22;38667;42.872;74.622;2022-10-31T09:28:27;12.50;58.10
52799;DHT22;38667;42.872;74.622;2022-10-31T09:30:54;12.40;57.60
52799;DHT22;38667;42.872;74.622;2022-10-31T09:33:22;12.40;57.50
52799;DHT22;38667;42.872;74.622;2022-10-31T09:35:48;12.30;57.40
52799;DHT22;38667;42.872;74.622;2022-10-31T09:38:16;12.20;57.40
52799;DHT22;38667;42.872;74.622;2022-10-31T09:40:44;12.20;57.70
52799;DHT22;38667;42.872;74.622;2022-10-31T09:43:15;12.20;58.10
52799;DHT22;38667;42.872;74.622;2022-10-31T09:45:56;12.10;58.60
52799;DHT22;38667;42.872;74.622;2022-10-31T09:48:37;12.10;58.20
52799;DHT22;38667;42.872;74.622;2022-10-31T09:51:08;12.00;58.30
52799;DHT22;38667;42.872;74.622;2022-10-31T09:53:39;12.00;58.20
52799;DHT22;38667;42.872;74.622;2022-10-31T09:56:11;12.00;58.80
52799;DHT22;38667;42.872;74.622;2022-10-31T09:58:42;11.90;59.10
52799;DHT22;38667;42.872;74.622;2022-10-31T10:01:34;11.90;59.00
52799;DHT22;38667;42.872;74.622;2022-10-31T10:04:14;11.90;58.90
52799;DHT22;38667;42.872;74.622;2022-10-31T10:06:46;11.90;59.40
52799;DHT22;38667;42.872;74.622;2022-10-31T10:09:14;11.90;59.20
52799;DHT22;38667;42.872;74.622;2022-10-31T10:11:48;11.90;58.90
52799;DHT22;38667;42.872;74.622;2022-10-31T10:14:36;11.90;58.90
52799;DHT22;38667;42.872;74.622;2022-10-31T10:17:16;11.90;59.40
52799;DHT22;38667;42.872;74.622;2022-10-31T10:19:55;11.70;60.30
52799;DHT22;38667;42.872;74.622;2022-10-31T10:22:30;11.70;60.00
52799;DHT22;38667;42.872;74.622;2022-10-31T10:25:14;11.70;61.20
52799;DHT22;38667;42.872;74.622;2022-10-31T10:27:51;11.80;59.80
52799;DHT22;38667;42.872;74.622;2022-10-31T10:30:22;11.80;60.40
52799;DHT22;38667;42.872;74.622;2022-10-31T10:32:51;11.80;60.50
52799;DHT22;38667;42.872;74.622;2022-10-31T10:35:24;11.80;59.90
52799;DHT22;38667;42.872;74.622;2022-10-31T10:37:56;11.80;59.80
52799;DHT22;38667;42.872;74.622;2022-10-31T10:40:25;11.70;59.40
52799;DHT22;38667;42.872;74.622;2022-10-31T10:42:59;11.70;59.80
52799;DHT22;38667;42.872;74.622;2022-10-31T10:45:27;11.70;60.40
52799;DHT22;38667;42.872;74.622;2022-10-31T10:48:01;11.70;59.80
52799;DHT22;38667;42.872;74.622;2022-10-31T10:50:39;11.60;60.70
52799;DHT22;38667;42.872;74.622;2022-10-31T10:53:15;11.70;60.20
52799;DHT22;38667;42.872;74.622;2022-10-31T10:55:49;11.70;60.40
52799;DHT22;38667;42.872;74.622;2022-10-31T10:58:17;11.60;59.20
52799;DHT22;38667;42.872;74.622;2022-10-31T11:00:44;11.70;60.10
52799;DHT22;38667;42.872;74.622;2022-10-31T11:03:11;11.60;60.00
52799;DHT22;38667;42.872;74.622;2022-10-31T11:05:42;11.50;60.70
52799;DHT22;38667;42.872;74.622;2022-10-31T11:08:11;11.50;60.40
52799;DHT22;38667;42.872;74.622;2022-10-31T11:10:37;11.60;60.50
52799;DHT22;38667;42.872;74.622;2022-10-31T11:13:14;11.50;60.60
52799;DHT22;38667;42.872;74.622;2022-10-31T11:15:53;11.50;60.80
52799;DHT22;38667;42.872;74.622;2022-10-31T11:18:22;11.50;61.00
52799;DHT22;38667;42.872;74.622;2022-10-31T11:20:53;11.50;61.60
52799;DHT22;38667;42.872;74.622;2022-10-31T11:23:21;11.50;61.70
52799;DHT22;38667;42.872;74.622;2022-10-31T11:25:56;11.50;62.40
52799;DHT22;38667;42.872;74.622;2022-10-31T11:28:23;11.50;61.80
52799;DHT22;38667;42.872;74.622;2022-10-31T11:30:52;11.50;62.00
52799;DHT22;38667;42.872;74.622;2022-10-31T11:33:21;11.50;62.00
52799;DHT22;38667;42.872;74.622;2022-10-31T11:35:49;11.50;61.50
52799;DHT22;38667;42.872;74.622;2022-10-31T11:38:19;11.50;61.30
52799;DHT22;38667;42.872;74.622;2022-10-31T11:40:55;11.50;60.90
52799;DHT22;38667;42.872;74.622;2022-10-31T11:43:23;11.40;61.40
52799;DHT22;38667;42.872;74.622;2022-10-31T11:45:50;11.40;61.10
52799;DHT22;38667;42.872;74.622;2022-10-31T11:48:18;11.40;62.00
52799;DHT22;38667;42.872;74.622;2022-10-31T11:50:50;11.40;62.20
52799;DHT22;38667;42.872;74.622;2022-10-31T11:53:19;11.40;62.90
52799;DHT22;38667;42.872;74.622;2022-10-31T11:55:46;11.40;63.30
52799;DHT22;38667;42.872;74.622;2022-10-31T11:58:21;11.40;63.00
52799;DHT22;38667;42.872;74.622;2022-10-31T12:00:50;11.40;62.50
52799;DHT22;38667;42.872;74.622;2022-10-31T12:03:33;11.30;62.90
52799;DHT22;38667;42.872;74.622;2022-10-31T12:06:07;11.30;64.20
52799;DHT22;38667;42.872;74.622;2022-10-31T12:08:36;11.30;63.80
52799;DHT22;38667;42.872;74.622;2022-10-31T12:11:11;11.20;63.70
52799;DHT22;38667;42.872;74.622;2022-10-31T12:13:42;11.20;63.70
52799;DHT22;38667;42.872;74.622;2022-10-31T12:16:20;11.20;63.90
52799;DHT22;38667;42.872;74.622;2022-10-31T12:18:58;11.20;63.80
52799;DHT22;38667;42.872;74.622;2022-10-31T12:21:44;11.10;64.40
52799;DHT22;38667;42.872;74.622;2022-10-31T12:24:23;11.00;64.40
52799;DHT22;38667;42.872;74.622;2022-10-31T12:27:02;11.10;65.10
52799;DHT22;38667;42.872;74.622;2022-10-31T12:29:42;11.00;64.80
52799;DHT22;38667;42.872;74.622;2022-10-31T12:32:23;11.00;65.20
52799;DHT22;38667;42.872;74.622;2022-10-31T12:38:10;10.90;65.40
52799;DHT22;38667;42.872;74.622;2022-10-31T12:40:55;10.80;66.00
52799;DHT22;38667;42.872;74.622;2022-10-31T12:43:36;10.70;66.40
52799;DHT22;38667;42.872;74.622;2022-10-31T12:46:11;10.60;67.40
52799;DHT22;38667;42.872;74.622;2022-10-31T12:51:36;10.50;67.30
52799;DHT22;38667;42.872;74.622;2022-10-31T12:54:23;10.50;68.30
52799;DHT22;38667;42.872;74.622;2022-10-31T12:57:01;10.50;68.80
52799;DHT22;38667;42.872;74.622;2022-10-31T12:59:33;10.40;69.30
52799;DHT22;38667;42.872;74.622;2022-10-31T13:02:04;10.40;69.80
52799;DHT22;38667;42.872;74.622;2022-10-31T13:04:40;10.30;70.70
52799;DHT22;38667;42.872;74.622;2022-10-31T13:07:12;10.20;70.80
52799;DHT22;38667;42.872;74.622;2022-10-31T13:09:45;10.20;71.50
52799;DHT22;38667;42.872;74.622;2022-10-31T13:12:16;10.20;71.60
52799;DHT22;38667;42.872;74.622;2022-10-31T13:14:47;10.20;72.80
52799;DHT22;38667;42.872;74.622;2022-10-31T13:17:30;10.10;73.40
52799;DHT22;38667;42.872;74.622;2022-10-31T13:20:13;10.10;75.20
52799;DHT22;38667;42.872;74.622;2022-10-31T13:22:45;10.00;76.10
52799;DHT22;38667;42.872;74.622;2022-10-31T13:25:15;9.90;75.40
52799;DHT22;38667;42.872;74.622;2022-10-31T13:27:48;9.90;72.90
52799;DHT22;38667;42.872;74.622;2022-10-31T13:30:18;10.00;71.50
52799;DHT22;38667;42.872;74.622;2022-10-31T13:32:49;10.10;71.60
52799;DHT22;38667;42.872;74.622;2022-10-31T13:35:23;10.10;71.30
52799;DHT22;38667;42.872;74.622;2022-10-31T13:38:05;10.10;71.60
52799;DHT22;38667;42.872;74.622;2022-10-31T13:40:40;10.00;70.90
52799;DHT22;38667;42.872;74.622;2022-10-31T13:43:18;10.10;70.90
52799;DHT22;38667;42.872;74.622;2022-10-31T13:45:49;10.10;72.20
52799;DHT22;38667;42.872;74.622;2022-10-31T13:48:37;10.00;72.40
52799;DHT22;38667;42.872;74.622;2022-10-31T13:51:06;9.90;71.40
52799;DHT22;38667;42.872;74.622;2022-10-31T13:53:41;9.90;71.60
52799;DHT22;38667;42.872;74.622;2022-10-31T13:56:20;9.80;71.70
52799;DHT22;38667;42.872;74.622;2022-10-31T13:59:17;9.90;72.30
52799;DHT22;38667;42.872;74.622;2022-10-31T14:01:51;9.90;72.70
52799;DHT22;38667;42.872;74.622;2022-10-31T14:04:19;9.80;73.20
52799;DHT22;38667;42.872;74.622;2022-10-31T14:07:04;9.70;74.80
52799;DHT22;38667;42.872;74.622;2022-10-31T14:09:32;9.60;75.80
52799;DHT22;38667;42.872;74.622;2022-10-31T14:12:03;9.60;75.50
52799;DHT22;38667;42.872;74.622;2022-10-31T14:14:35;9.50;75.80
52799;DHT22;38667;42.872;74.622;2022-10-31T14:17:12;9.50;75.80
52799;DHT22;38667;42.872;74.622;2022-10-31T14:19:41;9.40;75.90
52799;DHT22;38667;42.872;74.622;2022-10-31T14:22:20;9.40;76.90
52799;DHT22;38667;42.872;74.622;2022-10-31T14:24:46;9.30;77.10
52799;DHT22;38667;42.872;74.622;2022-10-31T14:27:35;9.20;77.10
52799;DHT22;38667;42.872;74.622;2022-10-31T14:30:21;9.20;77.10
52799;DHT22;38667;42.872;74.622;2022-10-31T14:32:51;9.10;76.70
52799;DHT22;38667;42.872;74.622;2022-10-31T14:35:20;9.10;77.60
52799;DHT22;38667;42.872;74.622;2022-10-31T14:41:07;9.00;78.70
52799;DHT22;38667;42.872;74.622;2022-10-31T14:43:55;8.90;78.20
52799;DHT22;38667;42.872;74.622;2022-10-31T14:46:37;8.90;77.40
52799;DHT22;38667;42.872;74.622;2022-10-31T14:49:21;8.90;78.40
52799;DHT22;38667;42.872;74.622;2022-10-31T14:51:51;8.90;78.50
52799;DHT22;38667;42.872;74.622;2022-10-31T14:54:20;8.90;78.20
52799;DHT22;38667;42.872;74.622;2022-10-31T14:56:51;8.80;78.40
52799;DHT22;38667;42.872;74.622;2022-10-31T14:59:21;8.70;79.00
52799;DHT22;38667;42.872;74.622;2022-10-31T15:01:56;8.70;79.20
52799;DHT22;38667;42.872;74.622;2022-10-31T15:04:24;8.70;78.90
52799;DHT22;38667;42.872;74.622;2022-10-31T15:06:54;8.70;79.60
52799;DHT22;38667;42.872;74.622;2022-10-31T15:09:23;8.60;79.90
52799;DHT22;38667;42.872;74.622;2022-10-31T15:11:49;8.60;79.20
52799;DHT22;38667;42.872;74.622;2022-10-31T15:14:23;8.60;79.80
52799;DHT22;38667;42.872;74.622;2022-10-31T15:16:55;8.60;80.10
52799;DHT22;38667;42.872;74.622;2022-10-31T15:19:24;8.50;80.00
52799;DHT22;38667;42.872;74.622;2022-10-31T15:21:52;8.50;79.40
52799;DHT22;38667;42.872;74.622;2022-10-31T15:24:19;8.50;79.20
52799;DHT22;38667;42.872;74.622;2022-10-31T15:26:47;8.60;78.50
52799;DHT22;38667;42.872;74.622;2022-10-31T15:29:16;8.60;78.30
52799;DHT22;38667;42.872;74.622;2022-10-31T15:31:50;8.60;77.60
52799;DHT22;38667;42.872;74.622;2022-10-31T15:34:21;8.50;77.80
52799;DHT22;38667;42.872;74.622;2022-10-31T15:36:48;8.50;78.30
52799;DHT22;38667;42.872;74.622;2022-10-31T15:39:15;8.50;78.60
52799;DHT22;38667;42.872;74.622;2022-10-31T15:41:49;8.50;78.80
52799;DHT22;38667;42.872;74.622;2022-10-31T15:44:16;8.50;77.80
52799;DHT22;38667;42.872;74.622;2022-10-31T15:46:44;8.40;78.00
52799;DHT22;38667;42.872;74.622;2022-10-31T15:49:28;8.40;78.40
52799;DHT22;38667;42.872;74.622;2022-10-31T15:51:55;8.40;79.10
52799;DHT22;38667;42.872;74.622;2022-10-31T15:54:22;8.40;79.20
52799;DHT22;38667;42.872;74.622;2022-10-31T15:56:48;8.40;78.90